sensor_id;sensor_type;location;lat;lon;timestamp;pressure;altitude;pressure_sealevel;temperature;humidity
47716;BME280;33476;50.984;3.538;2022-11-20T00:01:55;101363.94;;;8.49;67.59
47716;BME280;33476;50.984;3.538;2022-11-20T00:04:20;101360.53;;;8.47;67.89
47716;BME280;33476;50.984;3.538;2022-11-20T00:06:46;101356.28;;;8.44;67.61
47716;BME280;33476;50.984;3.538;2022-11-20T00:09:11;101361.56;;;8.41;67.77
47716;BME280;33476;50.984;3.538;2022-11-20T00:11:37;101372.81;;;8.41;67.67
47716;BME280;33476;50.984;3.538;2022-11-20T00:14:02;101367.56;;;8.43;68.29
47716;BME280;33476;50.984;3.538;2022-11-20T00:16:31;101371.06;;;8.42;67.90
47716;BME280;33476;50.984;3.538;2022-11-20T00:18:57;101373.56;;;8.47;67.80
47716;BME280;33476;50.984;3.538;2022-11-20T00:21:26;101367.53;;;8.44;68.23
47716;BME280;33476;50.984;3.538;2022-11-20T00:23:54;101369.13;;;8.49;67.46
47716;BME280;33476;50.984;3.538;2022-11-20T00:26:21;101365.63;;;8.50;67.83
47716;BME280;33476;50.984;3.538;2022-11-20T00:28:58;101366.69;;;8.44;68.00
47716;BME280;33476;50.984;3.538;2022-11-20T00:31:24;101369.09;;;8.50;67.64
47716;BME280;33476;50.984;3.538;2022-11-20T00:33:49;101368.16;;;8.53;68.04
47716;BME280;33476;50.984;3.538;2022-11-20T00:36:20;101366.50;;;8.50;67.78
47716;BME280;33476;50.984;3.538;2022-11-20T00:38:46;101374.22;;;8.53;67.38
47716;BME280;33476;50.984;3.538;2022-11-20T00:41:15;101371.75;;;8.49;67.91
47716;BME280;33476;50.984;3.538;2022-11-20T00:43:41;101364.69;;;8.52;67.47
47716;BME280;33476;50.984;3.538;2022-11-20T00:46:09;101364.69;;;8.52;67.44
47716;BME280;33476;50.984;3.538;2022-11-20T00:48:35;101362.06;;;8.54;67.55
47716;BME280;33476;50.984;3.538;2022-11-20T00:51:00;101365.59;;;8.51;67.88
47716;BME280;33476;50.984;3.538;2022-11-20T00:53:26;101366.44;;;8.52;67.44
47716;BME280;33476;50.984;3.538;2022-11-20T00:55:59;101361.22;;;8.53;67.29
47716;BME280;33476;50.984;3.538;2022-11-20T00:58:28;101364.78;;;8.49;67.29
47716;BME280;33476;50.984;3.538;2022-11-20T01:01:03;101370.09;;;8.46;68.08
47716;BME280;33476;50.984;3.538;2022-11-20T01:03:31;101375.16;;;8.51;67.37
47716;BME280;33476;50.984;3.538;2022-11-20T01:06:00;101367.50;;;8.46;67.80
47716;BME280;33476;50.984;3.538;2022-11-20T01:08:29;101366.66;;;8.46;67.58
47716;BME280;33476;50.984;3.538;2022-11-20T01:11:01;101372.69;;;8.46;67.81
47716;BME280;33476;50.984;3.538;2022-11-20T01:13:27;101366.44;;;8.52;67.77
47716;BME280;33476;50.984;3.538;2022-11-20T01:16:08;101361.44;;;8.46;67.63
47716;BME280;33476;50.984;3.538;2022-11-20T01:18:34;101367.66;;;8.40;68.25
47716;BME280;33476;50.984;3.538;2022-11-20T01:21:04;101363.47;;;8.34;68.11
47716;BME280;33476;50.984;3.538;2022-11-20T01:23:32;101362.56;;;8.37;68.09
47716;BME280;33476;50.984;3.538;2022-11-20T01:25:59;101370.16;;;8.43;68.40
47716;BME280;33476;50.984;3.538;2022-11-20T01:28:25;101360.59;;;8.45;68.40
47716;BME280;33476;50.984;3.538;2022-11-20T01:30:50;101351.06;;;8.44;67.95
47716;BME280;33476;50.984;3.538;2022-11-20T01:33:15;101362.50;;;8.38;68.00
47716;BME280;33476;50.984;3.538;2022-11-20T01:35:40;101363.25;;;8.42;68.38
47716;BME280;33476;50.984;3.538;2022-11-20T01:38:06;101363.22;;;8.43;68.05
47716;BME280;33476;50.984;3.538;2022-11-20T01:40:31;101367.50;;;8.46;68.23
47716;BME280;33476;50.984;3.538;2022-11-20T01:43:18;101365.81;;;8.43;68.38
47716;BME280;33476;50.984;3.538;2022-11-20T01:45:55;101367.38;;;8.49;68.17
47716;BME280;33476;50.984;3.538;2022-11-20T01:48:23;101362.06;;;8.52;67.48
47716;BME280;33476;50.984;3.538;2022-11-20T01:50:50;101353.53;;;8.49;67.54
47716;BME280;33476;50.984;3.538;2022-11-20T01:53:17;101364.00;;;8.47;67.81
47716;BME280;33476;50.984;3.538;2022-11-20T01:55:53;101360.47;;;8.48;67.65
47716;BME280;33476;50.984;3.538;2022-11-20T01:58:22;101363.94;;;8.49;67.80
47716;BME280;33476;50.984;3.538;2022-11-20T02:00:49;101362.19;;;8.49;68.11
47716;BME280;33476;50.984;3.538;2022-11-20T02:03:19;101352.66;;;8.48;67.73
47716;BME280;33476;50.984;3.538;2022-11-20T02:06:03;101354.44;;;8.48;67.91
47716;BME280;33476;50.984;3.538;2022-11-20T02:08:29;101362.28;;;8.46;68.13
47716;BME280;33476;50.984;3.538;2022-11-20T02:10:55;101352.91;;;8.40;67.87
47716;BME280;33476;50.984;3.538;2022-11-20T02:13:21;101352.09;;;8.38;67.97
47716;BME280;33476;50.984;3.538;2022-11-20T02:16:19;101353.00;;;8.37;68.27
47716;BME280;33476;50.984;3.538;2022-11-20T02:18:45;101345.88;;;8.44;67.98
47716;BME280;33476;50.984;3.538;2022-11-20T02:26:33;101345.28;;;8.33;68.81
47716;BME280;33476;50.984;3.538;2022-11-20T02:29:01;101342.63;;;8.34;68.70
47716;BME280;33476;50.984;3.538;2022-11-20T02:31:27;101350.34;;;8.39;68.46
47716;BME280;33476;50.984;3.538;2022-11-20T02:33:56;101343.41;;;8.39;68.72
47716;BME280;33476;50.984;3.538;2022-11-20T02:36:24;101338.94;;;8.43;68.19
47716;BME280;33476;50.984;3.538;2022-11-20T02:38:51;101344.06;;;8.46;68.17
47716;BME280;33476;50.984;3.538;2022-11-20T02:41:16;101346.63;;;8.48;68.49
47716;BME280;33476;50.984;3.538;2022-11-20T02:43:42;101345.72;;;8.49;68.74
47716;BME280;33476;50.984;3.538;2022-11-20T02:46:08;101336.94;;;8.51;68.34
47716;BME280;33476;50.984;3.538;2022-11-20T02:48:33;101341.31;;;8.51;68.61
47716;BME280;33476;50.984;3.538;2022-11-20T02:50:59;101336.19;;;8.48;68.11
47716;BME280;33476;50.984;3.538;2022-11-20T02:53:24;101329.25;;;8.48;68.27
47716;BME280;33476;50.984;3.538;2022-11-20T02:55:49;101319.69;;;8.49;68.63
47716;BME280;33476;50.984;3.538;2022-11-20T02:58:15;101325.69;;;8.51;68.40
47716;BME280;33476;50.984;3.538;2022-11-20T03:00:40;101330.81;;;8.54;68.21
47716;BME280;33476;50.984;3.538;2022-11-20T03:03:05;101333.38;;;8.55;68.60
47716;BME280;33476;50.984;3.538;2022-11-20T03:05:30;101329.91;;;8.55;68.43
47716;BME280;33476;50.984;3.538;2022-11-20T03:07:56;101321.19;;;8.56;68.63
47716;BME280;33476;50.984;3.538;2022-11-20T03:10:21;101320.25;;;8.58;68.15
47716;BME280;33476;50.984;3.538;2022-11-20T03:12:46;101318.47;;;8.59;68.20
47716;BME280;33476;50.984;3.538;2022-11-20T03:15:12;101307.13;;;8.61;68.23
47716;BME280;33476;50.984;3.538;2022-11-20T03:17:37;101293.28;;;8.59;68.47
47716;BME280;33476;50.984;3.538;2022-11-20T03:20:03;101291.78;;;8.52;68.24
47716;BME280;33476;50.984;3.538;2022-11-20T03:22:29;101294.38;;;8.52;68.67
47716;BME280;33476;50.984;3.538;2022-11-20T03:24:55;101290.19;;;8.48;69.12
47716;BME280;33476;50.984;3.538;2022-11-20T03:27:20;101283.34;;;8.46;68.64
47716;BME280;33476;50.984;3.538;2022-11-20T03:29:46;101273.84;;;8.44;68.82
47716;BME280;33476;50.984;3.538;2022-11-20T03:32:11;101274.81;;;8.40;69.00
47716;BME280;33476;50.984;3.538;2022-11-20T03:34:36;101276.63;;;8.38;69.26
47716;BME280;33476;50.984;3.538;2022-11-20T03:37:02;101273.16;;;8.38;69.73
47716;BME280;33476;50.984;3.538;2022-11-20T03:39:27;101263.56;;;8.40;69.29
47716;BME280;33476;50.984;3.538;2022-11-20T03:41:52;101266.03;;;8.44;69.22
47716;BME280;33476;50.984;3.538;2022-11-20T03:44:20;101258.22;;;8.44;68.72
47716;BME280;33476;50.984;3.538;2022-11-20T03:46:46;101261.63;;;8.47;69.21
47716;BME280;33476;50.984;3.538;2022-11-20T03:49:11;101251.28;;;8.43;68.94
47716;BME280;33476;50.984;3.538;2022-11-20T03:51:36;101246.91;;;8.46;69.46
47716;BME280;33476;50.984;3.538;2022-11-20T03:54:05;101244.53;;;8.38;69.39
47716;BME280;33476;50.984;3.538;2022-11-20T03:56:33;101244.75;;;8.30;69.92
47716;BME280;33476;50.984;3.538;2022-11-20T03:58:59;101237.78;;;8.31;70.16
47716;BME280;33476;50.984;3.538;2022-11-20T04:01:30;101232.59;;;8.31;69.91
47716;BME280;33476;50.984;3.538;2022-11-20T04:03:56;101234.22;;;8.35;69.95
47716;BME280;33476;50.984;3.538;2022-11-20T04:06:24;101228.19;;;8.33;70.13
47716;BME280;33476;50.984;3.538;2022-11-20T04:08:51;101222.13;;;8.32;70.39
47716;BME280;33476;50.984;3.538;2022-11-20T04:11:20;101227.38;;;8.31;70.18
47716;BME280;33476;50.984;3.538;2022-11-20T04:13:48;101226.66;;;8.26;70.64
47716;BME280;33476;50.984;3.538;2022-11-20T04:16:14;101223.88;;;8.32;70.29
47716;BME280;33476;50.984;3.538;2022-11-20T04:18:39;101225.53;;;8.36;70.30
47716;BME280;33476;50.984;3.538;2022-11-20T04:21:05;101215.00;;;8.39;70.27
47716;BME280;33476;50.984;3.538;2022-11-20T04:23:31;101216.66;;;8.41;70.07
47716;BME280;33476;50.984;3.538;2022-11-20T04:26:07;101216.69;;;8.40;70.81
47716;BME280;33476;50.984;3.538;2022-11-20T04:28:33;101219.16;;;8.44;70.43
47716;BME280;33476;50.984;3.538;2022-11-20T04:31:07;101212.28;;;8.42;70.65
47716;BME280;33476;50.984;3.538;2022-11-20T04:33:34;101214.94;;;8.40;70.94
47716;BME280;33476;50.984;3.538;2022-11-20T04:36:05;101206.44;;;8.34;70.94
47716;BME280;33476;50.984;3.538;2022-11-20T04:38:31;101206.66;;;8.28;70.81
47716;BME280;33476;50.984;3.538;2022-11-20T04:41:01;101201.50;;;8.26;71.45
47716;BME280;33476;50.984;3.538;2022-11-20T04:43:27;101196.22;;;8.29;71.24
47716;BME280;33476;50.984;3.538;2022-11-20T04:45:53;101212.81;;;8.25;71.11
47716;BME280;33476;50.984;3.538;2022-11-20T04:48:19;101209.28;;;8.28;71.50
47716;BME280;33476;50.984;3.538;2022-11-20T04:50:45;101217.03;;;8.29;71.49
47716;BME280;33476;50.984;3.538;2022-11-20T04:53:10;101213.72;;;8.24;71.87
47716;BME280;33476;50.984;3.538;2022-11-20T04:55:35;101205.78;;;8.27;71.86
47716;BME280;33476;50.984;3.538;2022-11-20T04:58:01;101204.88;;;8.30;71.33
47716;BME280;33476;50.984;3.538;2022-11-20T05:00:26;101211.63;;;8.35;71.06
47716;BME280;33476;50.984;3.538;2022-11-20T05:02:51;101198.53;;;8.38;71.07
47716;BME280;33476;50.984;3.538;2022-11-20T05:05:16;101193.22;;;8.41;71.21
47716;BME280;33476;50.984;3.538;2022-11-20T05:07:42;101184.69;;;8.38;71.32
47716;BME280;33476;50.984;3.538;2022-11-20T05:10:07;101187.38;;;8.33;71.30
47716;BME280;33476;50.984;3.538;2022-11-20T05:12:33;101189.97;;;8.35;70.93
47716;BME280;33476;50.984;3.538;2022-11-20T05:14:58;101170.81;;;8.37;71.06
47716;BME280;33476;50.984;3.538;2022-11-20T05:17:23;101177.72;;;8.38;70.73
47716;BME280;33476;50.984;3.538;2022-11-20T05:19:49;101170.13;;;8.31;70.80
47716;BME280;33476;50.984;3.538;2022-11-20T05:22:14;101178.91;;;8.28;70.84
47716;BME280;33476;50.984;3.538;2022-11-20T05:24:39;101183.25;;;8.28;71.60
47716;BME280;33476;50.984;3.538;2022-11-20T05:27:04;101184.00;;;8.31;70.93
47716;BME280;33476;50.984;3.538;2022-11-20T05:29:30;101185.69;;;8.32;71.12
47716;BME280;33476;50.984;3.538;2022-11-20T05:31:55;101184.00;;;8.31;71.40
47716;BME280;33476;50.984;3.538;2022-11-20T05:34:20;101182.38;;;8.27;71.15
47716;BME280;33476;50.984;3.538;2022-11-20T05:36:46;101186.00;;;8.23;71.27
47716;BME280;33476;50.984;3.538;2022-11-20T05:39:11;101189.38;;;8.25;71.12
47716;BME280;33476;50.984;3.538;2022-11-20T05:41:36;101187.63;;;8.26;70.91
47716;BME280;33476;50.984;3.538;2022-11-20T05:44:02;101185.03;;;8.26;70.74
47716;BME280;33476;50.984;3.538;2022-11-20T05:46:27;101184.88;;;8.30;70.95
47716;BME280;33476;50.984;3.538;2022-11-20T05:48:52;101185.78;;;8.29;71.12
47716;BME280;33476;50.984;3.538;2022-11-20T05:51:19;101181.44;;;8.30;70.97
47716;BME280;33476;50.984;3.538;2022-11-20T05:53:44;101184.94;;;8.29;70.66
47716;BME280;33476;50.984;3.538;2022-11-20T05:56:12;101181.50;;;8.28;71.06
47716;BME280;33476;50.984;3.538;2022-11-20T05:58:38;101171.78;;;8.33;70.53
47716;BME280;33476;50.984;3.538;2022-11-20T06:01:26;101183.00;;;8.35;70.99
47716;BME280;33476;50.984;3.538;2022-11-20T06:03:52;101175.13;;;8.38;70.82
47716;BME280;33476;50.984;3.538;2022-11-20T06:06:19;101181.22;;;8.37;71.01
47716;BME280;33476;50.984;3.538;2022-11-20T06:08:45;101181.28;;;8.36;71.05
47716;BME280;33476;50.984;3.538;2022-11-20T06:11:12;101172.50;;;8.38;71.19
47716;BME280;33476;50.984;3.538;2022-11-20T06:13:38;101175.19;;;8.35;71.09
47716;BME280;33476;50.984;3.538;2022-11-20T06:16:04;101171.66;;;8.38;70.75
47716;BME280;33476;50.984;3.538;2022-11-20T06:18:30;101170.81;;;8.37;70.99
47716;BME280;33476;50.984;3.538;2022-11-20T06:21:03;101160.44;;;8.34;71.18
47716;BME280;33476;50.984;3.538;2022-11-20T06:23:31;101156.13;;;8.35;71.29
47716;BME280;33476;50.984;3.538;2022-11-20T06:25:58;101159.44;;;8.40;71.27
47716;BME280;33476;50.984;3.538;2022-11-20T06:28:23;101158.72;;;8.36;71.48
47716;BME280;33476;50.984;3.538;2022-11-20T06:30:48;101155.09;;;8.40;71.22
47716;BME280;33476;50.984;3.538;2022-11-20T06:33:14;101158.53;;;8.41;70.85
47716;BME280;33476;50.984;3.538;2022-11-20T06:35:39;101158.47;;;8.42;71.22
47716;BME280;33476;50.984;3.538;2022-11-20T06:38:04;101168.75;;;8.47;71.03
47716;BME280;33476;50.984;3.538;2022-11-20T06:40:30;101154.78;;;8.50;70.64
47716;BME280;33476;50.984;3.538;2022-11-20T06:42:55;101148.66;;;8.51;70.61
47716;BME280;33476;50.984;3.538;2022-11-20T06:45:21;101149.69;;;8.47;71.27
47716;BME280;33476;50.984;3.538;2022-11-20T06:47:46;101141.66;;;8.53;71.11
47716;BME280;33476;50.984;3.538;2022-11-20T06:50:12;101144.28;;;8.51;70.74
47716;BME280;33476;50.984;3.538;2022-11-20T06:52:37;101144.41;;;8.48;71.06
47716;BME280;33476;50.984;3.538;2022-11-20T06:55:03;101145.44;;;8.44;71.52
47716;BME280;33476;50.984;3.538;2022-11-20T06:57:28;101140.25;;;8.42;71.12
47716;BME280;33476;50.984;3.538;2022-11-20T06:59:53;101147.16;;;8.43;72.20
47716;BME280;33476;50.984;3.538;2022-11-20T07:02:19;101145.25;;;8.49;71.37
47716;BME280;33476;50.984;3.538;2022-11-20T07:04:44;101141.50;;;8.57;70.97
47716;BME280;33476;50.984;3.538;2022-11-20T07:07:09;101138.09;;;8.55;71.34
47716;BME280;33476;50.984;3.538;2022-11-20T07:09:35;101142.41;;;8.56;71.89
47716;BME280;33476;50.984;3.538;2022-11-20T07:12:00;101147.56;;;8.58;71.12
47716;BME280;33476;50.984;3.538;2022-11-20T07:14:25;101138.09;;;8.55;71.49
47716;BME280;33476;50.984;3.538;2022-11-20T07:16:50;101139.69;;;8.59;71.59
47716;BME280;33476;50.984;3.538;2022-11-20T07:19:16;101130.94;;;8.62;71.21
47716;BME280;33476;50.984;3.538;2022-11-20T07:21:41;101130.81;;;8.65;71.38
47716;BME280;33476;50.984;3.538;2022-11-20T07:24:06;101130.81;;;8.65;71.70
47716;BME280;33476;50.984;3.538;2022-11-20T07:26:32;101121.38;;;8.62;71.79
47716;BME280;33476;50.984;3.538;2022-11-20T07:28:57;101117.75;;;8.66;71.81
47716;BME280;33476;50.984;3.538;2022-11-20T07:31:23;101110.63;;;8.71;71.45
47716;BME280;33476;50.984;3.538;2022-11-20T07:33:48;101107.13;;;8.72;71.64
47716;BME280;33476;50.984;3.538;2022-11-20T07:36:13;101106.31;;;8.70;71.66
47716;BME280;33476;50.984;3.538;2022-11-20T07:38:42;101103.81;;;8.67;71.28
47716;BME280;33476;50.984;3.538;2022-11-20T07:41:07;101104.50;;;8.72;71.87
47716;BME280;33476;50.984;3.538;2022-11-20T07:43:32;101100.22;;;8.71;71.48
47716;BME280;33476;50.984;3.538;2022-11-20T07:45:58;101107.22;;;8.69;72.33
47716;BME280;33476;50.984;3.538;2022-11-20T07:48:24;101105.47;;;8.70;71.79
47716;BME280;33476;50.984;3.538;2022-11-20T07:50:53;101105.50;;;8.68;72.16
47716;BME280;33476;50.984;3.538;2022-11-20T07:53:18;101099.38;;;8.71;71.85
47716;BME280;33476;50.984;3.538;2022-11-20T07:55:46;101102.63;;;8.76;72.20
47716;BME280;33476;50.984;3.538;2022-11-20T07:58:11;101101.63;;;8.80;72.17
47716;BME280;33476;50.984;3.538;2022-11-20T08:00:36;101099.88;;;8.81;72.17
47716;BME280;33476;50.984;3.538;2022-11-20T08:03:05;101087.84;;;8.77;72.41
47716;BME280;33476;50.984;3.538;2022-11-20T08:05:31;101096.53;;;8.77;72.68
47716;BME280;33476;50.984;3.538;2022-11-20T08:07:56;101089.47;;;8.81;72.77
47716;BME280;33476;50.984;3.538;2022-11-20T08:10:22;101091.09;;;8.83;72.61
47716;BME280;33476;50.984;3.538;2022-11-20T08:12:51;101102.28;;;8.85;72.77
47716;BME280;33476;50.984;3.538;2022-11-20T08:15:37;101092.44;;;8.93;72.84
47716;BME280;33476;50.984;3.538;2022-11-20T08:18:08;101095.03;;;8.95;72.79
47716;BME280;33476;50.984;3.538;2022-11-20T08:20:34;101094.06;;;8.97;72.99
47716;BME280;33476;50.984;3.538;2022-11-20T08:23:05;101090.66;;;8.95;72.67
47716;BME280;33476;50.984;3.538;2022-11-20T08:25:31;101093.56;;;9.11;72.46
47716;BME280;33476;50.984;3.538;2022-11-20T08:27:58;101082.28;;;9.11;72.04
47716;BME280;33476;50.984;3.538;2022-11-20T08:30:23;101073.72;;;9.07;72.46
47716;BME280;33476;50.984;3.538;2022-11-20T08:32:49;101080.75;;;9.05;72.77
47716;BME280;33476;50.984;3.538;2022-11-20T08:35:15;101071.94;;;9.08;72.51
47716;BME280;33476;50.984;3.538;2022-11-20T08:37:40;101071.94;;;9.08;72.56
47716;BME280;33476;50.984;3.538;2022-11-20T08:40:10;101064.91;;;9.10;73.09
47716;BME280;33476;50.984;3.538;2022-11-20T08:42:36;101064.75;;;9.14;72.71
47716;BME280;33476;50.984;3.538;2022-11-20T08:45:02;101064.75;;;9.14;73.06
47716;BME280;33476;50.984;3.538;2022-11-20T08:47:27;101067.38;;;9.14;73.19
47716;BME280;33476;50.984;3.538;2022-11-20T08:49:53;101063.91;;;9.14;73.42
47716;BME280;33476;50.984;3.538;2022-11-20T08:52:18;101067.19;;;9.19;73.33
47716;BME280;33476;50.984;3.538;2022-11-20T08:54:43;101065.47;;;9.18;73.09
47716;BME280;33476;50.984;3.538;2022-11-20T08:57:09;101047.97;;;9.21;73.39
47716;BME280;33476;50.984;3.538;2022-11-20T08:59:34;101053.91;;;9.25;73.48
47716;BME280;33476;50.984;3.538;2022-11-20T09:01:59;101052.28;;;9.22;73.42
47716;BME280;33476;50.984;3.538;2022-11-20T09:04:24;101052.84;;;9.31;73.11
47716;BME280;33476;50.984;3.538;2022-11-20T09:06:50;101044.88;;;9.34;73.25
47716;BME280;33476;50.984;3.538;2022-11-20T09:09:17;101040.66;;;9.31;73.46
47716;BME280;33476;50.984;3.538;2022-11-20T09:11:43;101042.41;;;9.31;73.82
47716;BME280;33476;50.984;3.538;2022-11-20T09:14:08;101031.06;;;9.32;73.38
47716;BME280;33476;50.984;3.538;2022-11-20T09:16:34;101026.06;;;9.27;74.08
47716;BME280;33476;50.984;3.538;2022-11-20T09:18:59;101018.88;;;9.32;74.03
47716;BME280;33476;50.984;3.538;2022-11-20T09:21:24;101013.56;;;9.35;73.89
47716;BME280;33476;50.984;3.538;2022-11-20T09:23:50;101015.19;;;9.38;74.07
47716;BME280;33476;50.984;3.538;2022-11-20T09:26:15;101012.38;;;9.42;73.89
47716;BME280;33476;50.984;3.538;2022-11-20T09:28:41;101023.56;;;9.46;73.58
47716;BME280;33476;50.984;3.538;2022-11-20T09:31:21;101020.88;;;9.47;73.70
47716;BME280;33476;50.984;3.538;2022-11-20T09:33:47;101011.31;;;9.48;73.86
47716;BME280;33476;50.984;3.538;2022-11-20T09:36:13;101003.19;;;9.55;73.62
47716;BME280;33476;50.984;3.538;2022-11-20T09:38:38;100994.38;;;9.58;73.42
47716;BME280;33476;50.984;3.538;2022-11-20T09:41:05;100988.22;;;9.61;73.61
47716;BME280;33476;50.984;3.538;2022-11-20T09:46:22;100977.09;;;9.76;73.27
47716;BME280;33476;50.984;3.538;2022-11-20T09:49:00;100968.19;;;9.81;72.66
47716;BME280;33476;50.984;3.538;2022-11-20T09:51:53;100968.03;;;9.84;72.93
47716;BME280;33476;50.984;3.538;2022-11-20T09:54:27;100959.78;;;9.95;72.70
47716;BME280;33476;50.984;3.538;2022-11-20T09:56:58;100961.41;;;9.98;72.51
47716;BME280;33476;50.984;3.538;2022-11-20T09:59:57;100949.00;;;10.03;72.63
47716;BME280;33476;50.984;3.538;2022-11-20T10:05:04;100947.69;;;10.13;72.27
47716;BME280;33476;50.984;3.538;2022-11-20T10:07:42;100937.19;;;10.14;72.15
47716;BME280;33476;50.984;3.538;2022-11-20T10:31:34;100931.66;;;10.22;71.72
47716;BME280;33476;50.984;3.538;2022-11-20T10:34:06;100923.81;;;10.22;71.50
47716;BME280;33476;50.984;3.538;2022-11-20T10:36:48;100912.56;;;10.20;71.79
47716;BME280;33476;50.984;3.538;2022-11-20T10:41:50;100898.91;;;10.34;71.26
47716;BME280;33476;50.984;3.538;2022-11-20T10:44:20;100890.81;;;10.40;71.09
47716;BME280;33476;50.984;3.538;2022-11-20T10:47:12;100877.69;;;10.41;70.98
47716;BME280;33476;50.984;3.538;2022-11-20T10:49:38;100874.03;;;10.46;70.89
47716;BME280;33476;50.984;3.538;2022-11-20T11:00:25;100874.78;;;10.48;70.49
47716;BME280;33476;50.984;3.538;2022-11-20T11:02:52;100879.25;;;10.46;70.87
47716;BME280;33476;50.984;3.538;2022-11-20T11:08:02;100866.03;;;10.49;70.82
47716;BME280;33476;50.984;3.538;2022-11-20T11:10:52;100858.50;;;10.43;71.10
47716;BME280;33476;50.984;3.538;2022-11-20T11:13:25;100862.72;;;10.45;70.86
47716;BME280;33476;50.984;3.538;2022-11-20T11:15:51;100855.50;;;10.50;70.86
47716;BME280;33476;50.984;3.538;2022-11-20T11:18:33;100850.59;;;10.44;71.16
47716;BME280;33476;50.984;3.538;2022-11-20T11:21:01;100850.53;;;10.46;71.00
47716;BME280;33476;50.984;3.538;2022-11-20T11:26:06;100835.50;;;10.32;71.84
47716;BME280;33476;50.984;3.538;2022-11-20T11:28:33;100840.72;;;10.32;71.82
47716;BME280;33476;50.984;3.538;2022-11-20T11:30:58;100828.59;;;10.31;72.20
47716;BME280;33476;50.984;3.538;2022-11-20T11:33:29;100816.72;;;10.24;72.25
47716;BME280;33476;50.984;3.538;2022-11-20T11:35:59;100803.59;;;10.25;72.20
47716;BME280;33476;50.984;3.538;2022-11-20T11:38:41;100802.19;;;10.18;72.71
47716;BME280;33476;50.984;3.538;2022-11-20T11:41:17;100797.66;;;10.22;72.51
47716;BME280;33476;50.984;3.538;2022-11-20T11:43:52;100795.91;;;10.22;72.49
47716;BME280;33476;50.984;3.538;2022-11-20T11:46:37;100789.81;;;10.22;72.51
47716;BME280;33476;50.984;3.538;2022-11-20T11:49:16;100782.06;;;10.20;72.77
47716;BME280;33476;50.984;3.538;2022-11-20T11:54:43;100761.06;;;10.23;72.61
47716;BME280;33476;50.984;3.538;2022-11-20T12:00:10;100747.16;;;10.23;72.75
47716;BME280;33476;50.984;3.538;2022-11-20T12:05:40;100723.72;;;10.21;73.43
47716;BME280;33476;50.984;3.538;2022-11-20T12:08:32;100718.59;;;10.20;73.57
47716;BME280;33476;50.984;3.538;2022-11-20T12:15:59;100711.47;;;10.23;73.94
47716;BME280;33476;50.984;3.538;2022-11-20T12:18:24;100703.66;;;10.23;74.30
47716;BME280;33476;50.984;3.538;2022-11-20T12:31:47;100685.09;;;10.10;75.64
47716;BME280;33476;50.984;3.538;2022-11-20T12:36:55;100656.31;;;10.12;76.12
47716;BME280;33476;50.984;3.538;2022-11-20T12:39:41;100648.19;;;10.18;75.99
47716;BME280;33476;50.984;3.538;2022-11-20T12:42:17;100649.75;;;10.22;75.64
47716;BME280;33476;50.984;3.538;2022-11-20T12:51:04;100633.03;;;10.26;75.94
47716;BME280;33476;50.984;3.538;2022-11-20T13:02:02;100608.25;;;10.35;75.82
47716;BME280;33476;50.984;3.538;2022-11-20T13:04:45;100608.53;;;10.29;75.65
47716;BME280;33476;50.984;3.538;2022-11-20T13:07:14;100604.00;;;10.32;75.79
47716;BME280;33476;50.984;3.538;2022-11-20T13:09:45;100606.78;;;10.29;76.09
47716;BME280;33476;50.984;3.538;2022-11-20T13:12:20;100600.94;;;10.24;76.36
47716;BME280;33476;50.984;3.538;2022-11-20T13:15:08;100598.44;;;10.21;76.78
47716;BME280;33476;50.984;3.538;2022-11-20T13:17:47;100587.78;;;10.26;76.56
47716;BME280;33476;50.984;3.538;2022-11-20T13:20:17;100606.59;;;10.32;76.44
47716;BME280;33476;50.984;3.538;2022-11-20T13:25:10;100600.72;;;10.29;76.91
47716;BME280;33476;50.984;3.538;2022-11-20T13:27:35;100592.56;;;10.35;76.63
47716;BME280;33476;50.984;3.538;2022-11-20T13:30:14;100583.66;;;10.39;76.57
47716;BME280;33476;50.984;3.538;2022-11-20T13:33:08;100581.03;;;10.39;76.57
47716;BME280;33476;50.984;3.538;2022-11-20T13:35:37;100565.38;;;10.39;76.48
47716;BME280;33476;50.984;3.538;2022-11-20T13:40:35;100566.22;;;10.39;76.63
47716;BME280;33476;50.984;3.538;2022-11-20T13:43:18;100566.31;;;10.38;76.68
47716;BME280;33476;50.984;3.538;2022-11-20T13:45:58;100563.31;;;10.46;76.42
47716;BME280;33476;50.984;3.538;2022-11-20T13:48:27;100565.66;;;10.50;76.24
47716;BME280;33476;50.984;3.538;2022-11-20T13:56:43;100554.47;;;10.48;76.79
47716;BME280;33476;50.984;3.538;2022-11-20T14:02:01;100552.25;;;10.74;75.97
47716;BME280;33476;50.984;3.538;2022-11-20T14:04:35;100550.41;;;10.76;76.11
47716;BME280;33476;50.984;3.538;2022-11-20T14:07:05;100552.69;;;10.82;76.03
47716;BME280;33476;50.984;3.538;2022-11-20T14:09:33;100538.69;;;10.83;76.09
47716;BME280;33476;50.984;3.538;2022-11-20T14:11:59;100549.84;;;10.86;76.24
47716;BME280;33476;50.984;3.538;2022-11-20T14:14:26;100548.91;;;10.87;76.49
47716;BME280;33476;50.984;3.538;2022-11-20T14:17:03;100552.06;;;10.94;76.25
47716;BME280;33476;50.984;3.538;2022-11-20T14:19:30;100543.84;;;11.00;76.26
47716;BME280;33476;50.984;3.538;2022-11-20T14:24:33;100548.94;;;11.19;75.92
47716;BME280;33476;50.984;3.538;2022-11-20T14:26:58;100542.53;;;11.24;75.94
47716;BME280;33476;50.984;3.538;2022-11-20T14:29:28;100539.06;;;11.24;76.06
47716;BME280;33476;50.984;3.538;2022-11-20T14:31:55;100550.47;;;11.39;75.68
47716;BME280;33476;50.984;3.538;2022-11-20T14:34:24;100547.66;;;11.42;75.20
47716;BME280;33476;50.984;3.538;2022-11-20T14:37:01;100550.56;;;11.37;75.72
47716;BME280;33476;50.984;3.538;2022-11-20T14:39:35;100556.53;;;11.39;75.67
47716;BME280;33476;50.984;3.538;2022-11-20T14:42:01;100556.28;;;11.44;75.87
47716;BME280;33476;50.984;3.538;2022-11-20T14:44:31;100557.13;;;11.44;75.81
47716;BME280;33476;50.984;3.538;2022-11-20T14:47:00;100562.09;;;11.49;75.75
47716;BME280;33476;50.984;3.538;2022-11-20T14:49:26;100563.78;;;11.50;75.70
47716;BME280;33476;50.984;3.538;2022-11-20T14:52:02;100562.94;;;11.49;75.88